Time;durP1;ratioP1;P1;durP2;ratioP2;P2;SDS_P1;SDS_P2;PMS_P1;PMS_P2;Temp;Humidity;BMP_temperature;BMP_pressure;BME280_temperature;BME280_humidity;BME280_pressure;Samples;Min_cycle;Max_cycle;Signal;HPM_P1;HPM_P2
2024/04/07 00:02:16;;;;;;;11.10;6.78;;;;;;;17.39;60.69;100331.81;5030839;27;101684;-78
2024/04/07 00:04:41;;;;;;;10.20;7.47;;;;;;;17.48;60.57;100329.53;5026208;27;100838;-78
2024/04/07 00:07:07;;;;;;;13.68;7.45;;;;;;;17.48;60.47;100329.53;5016900;28;96809;-78
2024/04/07 00:09:33;;;;;;;11.43;7.13;;;;;;;17.46;60.79;100339.41;5016489;28;97229;-78
2024/04/07 00:12:01;;;;;;;12.88;7.43;;;;;;;17.36;60.75;100339.94;5033303;27;98489;-78
2024/04/07 00:14:27;;;;;;;11.40;7.35;;;;;;;17.11;61.66;100339.75;5033082;27;98010;-77
2024/04/07 00:16:52;;;;;;;10.85;7.60;;;;;;;16.92;62.12;100324.94;5027944;27;96700;-78
2024/04/07 00:19:18;;;;;;;11.45;7.65;;;;;;;17.03;62.32;100345.53;5024708;27;96862;-78
2024/04/07 00:21:44;;;;;;;10.60;8.20;;;;;;;17.01;61.83;100314.75;5016751;28;98059;-78
2024/04/07 00:24:09;;;;;;;12.48;7.95;;;;;;;17.17;61.65;100323.47;5015976;28;101032;-78
2024/04/07 00:26:35;;;;;;;11.55;7.07;;;;;;;16.91;62.12;100314.47;5035039;27;97108;-78
2024/04/07 00:29:00;;;;;;;12.75;8.52;;;;;;;17.10;62.01;100340.69;5050708;27;96972;-78
2024/04/07 00:31:26;;;;;;;10.80;7.05;;;;;;;17.00;61.82;100337.75;5036740;27;101108;-79
2024/04/07 00:33:53;;;;;;;10.30;7.55;;;;;;;17.01;62.25;100341.25;5036670;27;97453;-78
2024/04/07 00:36:18;;;;;;;11.73;7.45;;;;;;;17.07;61.99;100320.50;5038302;27;96764;-78
2024/04/07 00:38:44;;;;;;;13.05;8.02;;;;;;;17.15;61.45;100334.16;5018943;27;97324;-78
2024/04/07 00:41:09;;;;;;;15.98;9.68;;;;;;;17.15;61.74;100328.84;5015981;28;100150;-78
2024/04/07 00:43:37;;;;;;;10.02;7.35;;;;;;;17.28;61.53;100338.72;5036112;27;96852;-78
2024/04/07 00:46:03;;;;;;;10.75;7.35;;;;;;;17.15;61.83;100341.28;5037626;27;96799;-78
2024/04/07 00:48:29;;;;;;;11.32;7.78;;;;;;;17.03;61.98;100334.91;5020021;28;97108;-78
2024/04/07 00:50:55;;;;;;;12.75;8.55;;;;;;;17.08;62.06;100334.66;5036260;27;97904;-77
2024/04/07 00:53:21;;;;;;;11.20;7.78;;;;;;;16.96;62.21;100331.78;5002612;28;101350;-78
2024/04/07 00:55:47;;;;;;;11.18;7.93;;;;;;;16.92;62.38;100334.72;5019053;28;96880;-78
2024/04/07 00:58:16;;;;;;;12.18;9.05;;;;;;;16.78;62.67;100329.38;5036672;27;96832;-78
2024/04/07 01:00:43;;;;;;;12.27;8.40;;;;;;;16.79;62.68;100318.69;5034954;27;101039;-78
2024/04/07 01:03:09;;;;;;;11.43;8.18;;;;;;;16.80;62.69;100327.50;5019027;28;101463;-78
2024/04/07 01:05:48;;;;;;;15.60;10.18;;;;;;;16.47;63.63;100337.31;5018834;27;96743;-79
2024/04/07 01:08:15;;;;;;;15.13;9.77;;;;;;;16.47;63.43;100334.66;5033401;27;97093;-78
2024/04/07 01:10:42;;;;;;;13.63;9.70;;;;;;;16.48;63.58;100330.22;5032873;27;97466;-80
2024/04/07 01:13:08;;;;;;;16.08;10.45;;;;;;;16.47;63.48;100317.91;5070018;27;97321;-78
2024/04/07 01:15:37;;;;;;;13.25;9.80;;;;;;;16.66;62.81;100321.16;5017996;28;96886;-78
2024/04/07 01:18:03;;;;;;;16.30;10.27;;;;;;;16.29;63.78;100310.09;5036048;27;96955;-78
2024/04/07 01:20:30;;;;;;;17.70;11.05;;;;;;;16.26;64.27;100298.81;5034885;27;97697;-78
2024/04/07 01:22:55;;;;;;;17.00;10.27;;;;;;;16.28;64.60;100321.63;5001751;27;101454;-78
2024/04/07 01:25:22;;;;;;;17.10;10.75;;;;;;;16.10;64.60;100290.91;5035120;27;96815;-78
2024/04/07 01:27:59;;;;;;;16.17;10.40;;;;;;;16.07;64.88;100312.25;5010628;28;97892;-78
2024/04/07 01:30:26;;;;;;;16.45;9.68;;;;;;;16.01;65.51;100315.25;5034893;27;97476;-78
2024/04/07 01:32:51;;;;;;;15.60;9.88;;;;;;;16.14;64.72;100321.56;5035622;27;97269;-78
2024/04/07 01:35:17;;;;;;;16.15;10.15;;;;;;;15.93;65.18;100291.00;5001583;28;96819;-78
2024/04/07 01:37:43;;;;;;;14.77;10.15;;;;;;;16.00;64.87;100303.81;5034962;27;96993;-78
2024/04/07 01:40:09;;;;;;;14.38;9.15;;;;;;;15.83;65.67;100304.78;5000456;28;101573;-78
2024/04/07 01:42:36;;;;;;;12.55;8.82;;;;;;;16.00;65.03;100301.19;5002217;28;99483;-78
2024/04/07 01:45:03;;;;;;;15.35;9.65;;;;;;;15.91;65.12;100280.53;5034533;27;97109;-78
2024/04/07 01:47:28;;;;;;;13.00;8.63;;;;;;;16.05;65.16;100307.03;5019128;28;96924;-78
2024/04/07 01:49:54;;;;;;;14.13;9.25;;;;;;;16.13;64.84;100316.38;5036200;27;97347;-78
2024/04/07 01:52:19;;;;;;;12.15;8.93;;;;;;;16.10;64.91;100306.78;5035336;27;97583;-78
2024/04/07 01:54:45;;;;;;;15.43;9.07;;;;;;;16.00;65.04;100309.13;5035627;27;97948;-78
2024/04/07 01:57:11;;;;;;;14.65;9.35;;;;;;;15.92;65.48;100313.16;5018581;28;96971;-78
2024/04/07 01:59:36;;;;;;;14.38;8.77;;;;;;;15.92;65.38;100315.78;5034666;27;98009;-78
2024/04/07 02:02:02;;;;;;;15.63;9.25;;;;;;;15.97;65.37;100311.06;5018005;27;101520;-78
2024/04/07 02:04:28;;;;;;;15.75;9.93;;;;;;;15.89;65.26;100298.28;5018085;28;96920;-78
2024/04/07 02:06:54;;;;;;;12.95;8.48;;;;;;;16.00;65.03;100301.19;5035414;27;97405;-78
2024/04/07 02:09:20;;;;;;;13.60;8.93;;;;;;;15.97;64.95;100298.72;5033725;27;98280;-78
2024/04/07 02:11:47;;;;;;;11.80;8.80;;;;;;;16.00;64.70;100290.59;5001481;28;100734;-77
2024/04/07 02:14:12;;;;;;;14.25;9.55;;;;;;;15.80;65.07;100275.84;5017610;27;96836;-79
2024/04/07 02:16:38;;;;;;;12.45;9.40;;;;;;;15.71;65.61;100292.22;5033913;27;96796;-78
2024/04/07 02:19:03;;;;;;;13.30;8.50;;;;;;;15.80;65.62;100283.78;5016824;28;101478;-78
2024/04/07 02:21:29;;;;;;;13.77;8.63;;;;;;;15.64;65.71;100280.25;5036275;27;97327;-78
2024/04/07 02:23:54;;;;;;;11.70;8.77;;;;;;;15.71;65.67;100296.69;5018040;28;96729;-77
2024/04/07 02:26:20;;;;;;;13.85;8.77;;;;;;;15.49;65.66;100263.44;5035028;27;96927;-78
2024/04/07 02:28:45;;;;;;;13.30;8.25;;;;;;;15.58;65.76;100284.06;5035630;27;97518;-78
2024/04/07 02:31:11;;;;;;;10.27;7.65;;;;;;;15.53;65.98;100286.16;5034944;27;97402;-78
2024/04/07 02:33:38;;;;;;;11.98;7.95;;;;;;;15.73;65.36;100287.69;5034531;27;97168;-79
2024/04/07 02:36:03;;;;;;;11.90;7.65;;;;;;;15.68;65.14;100280.94;5017721;28;96956;-78
2024/04/07 02:38:29;;;;;;;11.95;8.35;;;;;;;15.70;64.62;100273.78;5033569;27;96880;-78
2024/04/07 02:40:55;;;;;;;14.60;7.72;;;;;;;15.60;65.05;100276.06;5034110;27;97542;-79
2024/04/07 02:43:20;;;;;;;13.57;7.28;;;;;;;15.82;64.59;100288.97;5034812;27;96851;-78
2024/04/07 02:48:30;;;;;;;19.27;8.50;;;;;;;15.35;65.36;100264.19;5018185;27;101100;-78
2024/04/07 02:50:57;;;;;;;11.07;7.47;;;;;;;15.65;65.14;100294.31;5033802;27;101569;-78
2024/04/07 02:53:24;;;;;;;11.77;7.90;;;;;;;15.40;65.68;100290.38;5033561;27;96744;-78
2024/04/07 02:55:49;;;;;;;12.50;8.65;;;;;;;15.04;66.16;100272.94;5034382;27;96877;-78
2024/04/07 02:58:15;;;;;;;12.50;8.57;;;;;;;14.91;67.00;100288.56;5032557;27;97631;-78
2024/04/07 03:00:40;;;;;;;11.52;7.90;;;;;;;15.10;66.26;100269.97;5033614;27;97580;-77
2024/04/07 03:03:06;;;;;;;14.40;8.25;;;;;;;15.34;65.70;100302.16;5018039;28;96969;-78
2024/04/07 03:05:31;;;;;;;10.05;7.22;;;;;;;14.98;66.28;100260.03;5033319;27;97312;-78
2024/04/07 03:07:57;;;;;;;10.75;7.63;;;;;;;15.04;66.31;100272.94;5014032;28;101149;-78
2024/04/07 03:10:22;;;;;;;10.40;7.68;;;;;;;15.18;66.30;100293.31;5014003;27;97994;-78
2024/04/07 03:12:48;;;;;;;12.05;7.88;;;;;;;14.96;66.31;100267.19;5034596;27;96779;-78
2024/04/07 03:15:13;;;;;;;11.57;7.55;;;;;;;14.97;66.03;100258.31;5033964;27;96959;-78
2024/04/07 03:17:39;;;;;;;11.60;7.28;;;;;;;15.19;66.06;100294.19;5033114;27;101466;-78
2024/04/07 03:20:06;;;;;;;11.27;7.05;;;;;;;15.07;66.47;100298.34;5016610;28;101790;-78
2024/04/07 03:22:31;;;;;;;9.05;6.40;;;;;;;15.18;65.76;100293.31;5034526;27;96802;-78
2024/04/07 03:24:57;;;;;;;12.15;7.97;;;;;;;15.15;65.65;100281.16;5033708;27;96942;-78
2024/04/07 03:27:22;;;;;;;9.48;6.60;;;;;;;15.28;65.50;100297.19;5033771;27;97575;-79
2024/04/07 03:29:48;;;;;;;10.32;6.82;;;;;;;15.14;65.69;100290.00;5033245;27;97515;-78
2024/04/07 03:32:13;;;;;;;12.80;6.85;;;;;;;15.17;65.60;100286.34;5017306;28;96797;-78
2024/04/07 03:34:39;;;;;;;11.27;7.05;;;;;;;15.14;65.29;100262.72;5016475;27;97132;-79
2024/04/07 03:37:06;;;;;;;11.80;7.38;;;;;;;15.08;65.65;100282.41;5033888;27;97449;-78
2024/04/07 03:39:31;;;;;;;20.95;7.15;;;;;;;15.00;65.91;100279.28;5032564;27;97759;-78
2024/04/07 03:41:57;;;;;;;9.65;6.20;;;;;;;15.01;65.91;100285.44;5017329;28;96917;-78
2024/04/07 03:44:22;;;;;;;7.97;5.78;;;;;;;14.92;65.79;100268.28;5033474;27;97061;-79
2024/04/07 03:46:48;;;;;;;10.57;6.63;;;;;;;14.89;65.85;100268.44;5033192;27;97556;-78
2024/04/07 03:49:14;;;;;;;12.00;6.88;;;;;;;14.94;66.03;100285.75;4999406;28;101401;-78
2024/04/07 03:51:39;;;;;;;13.52;6.70;;;;;;;15.02;65.62;100295.94;5033500;27;96947;-77
2024/04/07 03:54:06;;;;;;;8.45;5.68;;;;;;;15.05;65.83;100294.94;5033385;27;97198;-78
2024/04/07 03:56:31;;;;;;;9.18;7.03;;;;;;;15.12;65.54;100289.22;5014371;28;101407;-77
2024/04/07 03:58:57;;;;;;;12.32;7.57;;;;;;;15.14;65.02;100284.69;5016168;28;99204;-78
2024/04/07 04:01:22;;;;;;;10.80;7.25;;;;;;;15.11;65.09;100284.88;5032717;27;96805;-78
2024/04/07 04:03:48;;;;;;;9.98;6.57;;;;;;;15.08;65.18;100282.41;5033282;27;97301;-78
2024/04/07 04:06:14;;;;;;;11.23;6.40;;;;;;;15.03;65.44;100292.34;5016783;28;97350;-78
2024/04/07 04:08:40;;;;;;;9.25;6.47;;;;;;;14.91;65.74;100285.06;4998601;27;101503;-78
2024/04/07 04:11:06;;;;;;;10.75;6.63;;;;;;;14.91;65.56;100290.34;5034677;27;96780;-78
2024/04/07 04:13:35;;;;;;;9.63;6.95;;;;;;;14.53;66.86;100290.56;5031383;27;96887;-78
2024/04/07 04:16:00;;;;;;;11.27;6.57;;;;;;;14.47;67.28;100291.69;5017678;27;97638;-78
2024/04/07 04:18:26;;;;;;;11.48;7.13;;;;;;;14.45;67.38;100280.31;5031563;27;97310;-78
2024/04/07 04:20:51;;;;;;;13.63;6.50;;;;;;;14.20;67.50;100262.25;5016847;28;96924;-78
2024/04/07 04:23:17;;;;;;;11.07;6.63;;;;;;;14.12;67.92;100269.69;5032875;27;97191;-78
2024/04/07 04:25:52;;;;;;;9.75;6.22;;;;;;;14.09;68.40;100277.75;5033193;27;97899;-77
2024/04/07 04:28:19;;;;;;;12.65;7.15;;;;;;;14.28;67.79;100282.97;5030784;27;97563;-77
2024/04/07 04:30:59;;;;;;;9.27;5.65;;;;;;;14.46;67.42;100281.22;5033482;27;96795;-77
2024/04/07 04:33:25;;;;;;;10.05;5.97;;;;;;;14.42;67.19;100296.34;5015895;27;97466;-78
2024/04/07 04:35:50;;;;;;;8.68;5.72;;;;;;;14.48;67.39;100293.38;5031624;27;98126;-78
2024/04/07 04:38:16;;;;;;;9.40;6.30;;;;;;;14.42;67.16;100269.91;5032778;27;98491;-78
2024/04/07 04:40:59;;;;;;;10.98;6.03;;;;;;;14.23;67.92;100283.22;4999231;28;96865;-78
2024/04/07 04:43:25;;;;;;;7.72;5.18;;;;;;;14.31;66.95;100261.72;5032063;27;96921;-78
2024/04/07 04:46:03;;;;;;;9.90;6.13;;;;;;;14.80;66.16;100290.91;5032431;27;100308;-78
2024/04/07 04:48:33;;;;;;;9.55;5.63;;;;;;;14.76;66.15;100278.81;5032146;27;97705;-78
2024/04/07 04:50:59;;;;;;;9.95;6.22;;;;;;;14.75;65.93;100273.59;5033753;27;96818;-78
2024/04/07 04:53:24;;;;;;;8.65;5.75;;;;;;;14.95;65.27;100297.19;4998969;27;97501;-79
2024/04/07 04:55:51;;;;;;;8.88;6.43;;;;;;;14.89;65.50;100279.00;5015781;28;97861;-78
2024/04/07 04:58:16;;;;;;;9.18;6.05;;;;;;;15.05;64.99;100287.84;5015010;27;101195;-78
2024/04/07 05:00:42;;;;;;;8.20;5.38;;;;;;;15.48;64.35;100300.56;5034399;27;98013;-78
2024/04/07 05:03:08;;;;;;;13.55;6.93;;;;;;;15.71;62.91;100310.75;5016725;28;97391;-78
2024/04/07 05:05:33;;;;;;;9.18;5.88;;;;;;;15.95;62.49;100305.03;5015752;28;99514;-79
2024/04/07 05:07:58;;;;;;;9.10;6.22;;;;;;;15.88;62.13;100298.34;5032924;27;97509;-78
2024/04/07 05:10:24;;;;;;;7.00;5.45;;;;;;;16.13;62.03;100295.19;5034524;27;96700;-78
2024/04/07 05:12:50;;;;;;;11.32;6.50;;;;;;;16.03;61.49;100265.75;5034231;27;96821;-78
2024/04/07 05:15:16;;;;;;;9.98;6.10;;;;;;;16.49;60.63;100300.13;5017280;28;97337;-78
2024/04/07 05:17:42;;;;;;;11.02;5.65;;;;;;;16.13;60.95;100293.38;5027154;27;101433;-78
2024/04/07 05:20:08;;;;;;;10.52;5.53;;;;;;;16.06;61.52;100290.25;5019614;28;96850;-78
2024/04/07 05:22:35;;;;;;;8.85;5.60;;;;;;;16.25;60.92;100291.81;5019923;28;96810;-78
2024/04/07 05:25:01;;;;;;;11.20;5.70;;;;;;;15.89;61.31;100266.53;5036130;27;97467;-78
2024/04/07 05:27:26;;;;;;;9.85;5.90;;;;;;;16.21;61.03;100298.25;5036848;27;97522;-78
2024/04/07 05:29:52;;;;;;;9.35;5.90;;;;;;;16.75;60.26;100291.50;5037526;27;96748;-78
2024/04/07 05:32:17;;;;;;;8.88;6.10;;;;;;;16.85;59.35;100283.00;5036228;27;97002;-78
2024/04/07 05:34:48;;;;;;;12.15;6.00;;;;;;;17.06;58.94;100292.31;5036139;27;97268;-78
2024/04/07 05:37:14;;;;;;;6.72;5.30;;;;;;;17.33;58.36;100295.03;5035768;27;98163;-78
2024/04/07 05:39:46;;;;;;;9.70;5.85;;;;;;;17.50;57.63;100291.31;5025684;28;97239;-78
2024/04/07 05:42:12;;;;;;;7.85;5.65;;;;;;;16.91;58.67;100250.81;5022457;27;96759;-78
2024/04/07 05:44:38;;;;;;;11.13;6.15;;;;;;;17.13;58.95;100306.03;5037318;27;97724;-79
2024/04/07 05:47:04;;;;;;;9.13;5.10;;;;;;;16.82;59.50;100269.94;5018133;28;101608;-78
2024/04/07 05:49:32;;;;;;;8.50;5.47;;;;;;;17.20;58.63;100291.47;5037654;27;96752;-78
2024/04/07 05:51:58;;;;;;;7.95;4.88;;;;;;;17.30;58.25;100262.53;5035408;27;96917;-78
2024/04/07 05:54:23;;;;;;;9.02;5.47;;;;;;;17.58;58.16;100296.16;5034818;27;98828;-78
2024/04/07 05:56:49;;;;;;;6.60;4.63;;;;;;;17.67;57.32;100276.13;5018152;27;97908;-79
2024/04/07 05:59:14;;;;;;;6.90;5.20;;;;;;;17.92;57.02;100283.38;5035717;27;96760;-79
2024/04/07 06:01:40;;;;;;;8.02;5.22;;;;;;;18.12;56.20;100266.13;5018911;28;96803;-78
2024/04/07 06:04:05;;;;;;;9.38;4.82;;;;;;;18.42;55.86;100301.31;5018722;28;97493;-79
2024/04/07 06:06:31;;;;;;;9.73;5.65;;;;;;;18.38;55.50;100281.19;5018483;28;97928;-79
2024/04/07 06:08:56;;;;;;;9.40;5.70;;;;;;;18.91;54.81;100278.53;5036487;27;96680;-79
2024/04/07 06:11:22;;;;;;;7.80;5.38;;;;;;;19.11;54.26;100274.47;5027472;27;97249;-79
2024/04/07 06:13:47;;;;;;;13.30;6.07;;;;;;;19.77;53.07;100294.59;5035638;27;98170;-79
2024/04/07 06:16:13;;;;;;;11.35;5.57;;;;;;;20.34;51.48;100271.75;5048818;27;97463;-79
2024/04/07 06:18:38;;;;;;;9.55;5.45;;;;;;;20.70;50.54;100277.94;5034262;27;96935;-79
2024/04/07 06:21:07;;;;;;;8.82;5.05;;;;;;;21.08;49.93;100280.28;5037031;27;96868;-80
2024/04/07 06:23:33;;;;;;;7.60;4.88;;;;;;;21.62;48.55;100270.72;5034855;27;97462;-79
2024/04/07 06:25:59;;;;;;;8.32;5.05;;;;;;;21.58;48.13;100267.41;5001635;27;100841;-80
2024/04/07 06:28:24;;;;;;;8.10;4.90;;;;;;;22.31;46.99;100281.06;5017801;28;96919;-79
2024/04/07 06:30:50;;;;;;;8.27;4.60;;;;;;;22.10;47.79;100289.03;5035416;27;96962;-80
2024/04/07 06:33:15;;;;;;;8.73;4.85;;;;;;;22.28;47.23;100284.00;5017314;27;101692;-79
2024/04/07 06:35:42;;;;;;;7.40;4.45;;;;;;;22.57;46.71;100286.88;5018289;28;101139;-79
2024/04/07 06:38:07;;;;;;;7.72;4.63;;;;;;;22.97;45.62;100289.72;5035383;27;97195;-80
2024/04/07 06:40:33;;;;;;;12.10;4.93;;;;;;;23.13;45.54;100289.25;5036773;27;96960;-80
2024/04/07 06:42:58;;;;;;;7.90;4.30;;;;;;;22.90;46.15;100293.88;5017188;28;101141;-79
2024/04/07 06:45:24;;;;;;;6.43;4.68;;;;;;;22.80;46.36;100301.81;5027471;28;100995;-80
2024/04/07 06:47:49;;;;;;;9.13;4.40;;;;;;;22.93;45.86;100292.78;5027902;27;96854;-79
2024/04/07 06:50:15;;;;;;;10.13;3.97;;;;;;;23.54;45.05;100302.66;5034889;27;97033;-79
2024/04/07 06:52:40;;;;;;;6.38;4.65;;;;;;;24.33;43.28;100282.06;5034266;27;98498;-80
2024/04/07 06:55:06;;;;;;;7.85;4.32;;;;;;;24.79;42.79;100299.25;5032515;27;97616;-80
2024/04/07 06:57:31;;;;;;;6.60;4.25;;;;;;;25.20;41.52;100301.72;5032658;27;97269;-80
2024/04/07 06:59:57;;;;;;;6.78;4.47;;;;;;;25.14;41.70;100294.25;5003760;28;96890;-80
2024/04/07 07:02:23;;;;;;;6.30;4.03;;;;;;;26.02;40.48;100300.03;5050015;27;97530;-83
2024/04/07 07:04:48;;;;;;;6.82;3.97;;;;;;;26.15;40.29;100293.28;5006103;28;101608;-84
2024/04/07 07:07:14;;;;;;;5.95;3.85;;;;;;;26.71;39.41;100306.59;5024588;28;97412;-82
2024/04/07 07:09:39;;;;;;;9.20;4.65;;;;;;;27.04;38.51;100289.63;5016663;28;98514;-84
2024/04/07 07:12:05;;;;;;;6.05;4.18;;;;;;;27.49;37.88;100301.19;5028007;27;97967;-85
2024/04/07 07:14:31;;;;;;;5.72;4.13;;;;;;;27.07;38.37;100275.81;5014613;28;100940;-83
2024/04/07 07:16:56;;;;;;;6.03;3.55;;;;;;;27.60;37.76;100295.47;5031659;27;97299;-89
2024/04/07 07:19:22;;;;;;;6.97;4.30;;;;;;;27.67;37.31;100287.59;5032165;27;96881;-88
2024/04/07 07:21:48;;;;;;;11.07;4.15;;;;;;;27.67;37.55;100291.13;5015389;28;99919;-89
2024/04/07 07:24:14;;;;;;;8.68;3.72;;;;;;;28.17;36.75;100273.22;5033688;27;98406;-88
2024/04/07 07:26:39;;;;;;;4.72;3.30;;;;;;;28.18;36.43;100269.50;5015094;28;96855;-88
2024/04/07 07:29:05;;;;;;;5.30;3.40;;;;;;;28.34;36.48;100284.88;5031903;27;97285;-88
2024/04/07 07:31:31;;;;;;;7.72;4.10;;;;;;;28.49;36.58;100275.09;5030558;27;98285;-89
2024/04/07 07:33:56;;;;;;;7.30;3.75;;;;;;;28.93;36.00;100295.47;5032806;27;97209;-90
2024/04/07 07:36:22;;;;;;;7.10;3.80;;;;;;;29.46;35.50;100264.25;5029124;27;97353;-86
2024/04/07 07:38:48;;;;;;;4.70;3.10;;;;;;;29.29;34.79;100285.09;5033033;27;96861;-87
2024/04/07 07:41:14;;;;;;;7.50;3.20;;;;;;;29.78;33.84;100268.66;5016898;28;98431;-88
2024/04/07 07:43:40;;;;;;;6.35;3.10;;;;;;;30.15;32.95;100258.97;5018490;28;101041;-87
2024/04/07 07:46:05;;;;;;;5.07;3.53;;;;;;;31.02;32.15;100253.13;5030217;27;97820;-87
2024/04/07 07:48:31;;;;;;;3.85;2.75;;;;;;;30.89;31.90;100264.59;5033182;27;97391;-87
2024/04/07 07:50:56;;;;;;;5.95;3.20;;;;;;;30.84;32.47;100280.59;5012840;28;99670;-89
2024/04/07 07:53:22;;;;;;;5.68;3.30;;;;;;;31.51;31.06;100274.25;5035857;27;97874;-88
2024/04/07 07:55:49;;;;;;;5.18;3.42;;;;;;;30.96;32.11;100273.66;5021455;27;97125;-88
2024/04/07 07:58:14;;;;;;;5.47;3.25;;;;;;;30.56;33.20;100273.00;5039740;27;97508;-86
2024/04/07 08:00:40;;;;;;;5.10;3.55;;;;;;;30.89;33.17;100270.88;5028555;27;98415;-85
2024/04/07 08:03:05;;;;;;;4.55;3.55;;;;;;;33.02;30.72;100278.66;5026377;27;98267;-86
2024/04/07 08:05:31;;;;;;;5.18;3.25;;;;;;;33.00;30.27;100282.59;5013112;27;97058;-88
2024/04/07 08:07:56;;;;;;;4.70;3.13;;;;;;;32.21;30.43;100280.88;5022328;28;98580;-86
2024/04/07 08:10:22;;;;;;;7.22;2.95;;;;;;;31.44;31.52;100289.56;5031039;27;98259;-79
2024/04/07 08:12:48;;;;;;;9.48;3.58;;;;;;;30.35;32.59;100289.97;5031662;27;97403;-79
2024/04/07 08:15:14;;;;;;;6.78;3.30;;;;;;;32.01;30.73;100286.09;5032036;27;96727;-79
2024/04/07 08:17:40;;;;;;;6.80;2.97;;;;;;;32.97;30.19;100291.97;5012793;27;96909;-82
2024/04/07 08:20:06;;;;;;;5.20;3.05;;;;;;;34.57;28.24;100277.06;4996355;28;101579;-81
2024/04/07 08:22:32;;;;;;;5.63;2.92;;;;;;;35.67;26.59;100279.16;5029517;27;98327;-81
2024/04/07 08:24:57;;;;;;;3.53;2.80;;;;;;;35.64;26.60;100280.44;5013866;27;96800;-81
2024/04/07 08:27:23;;;;;;;5.93;2.90;;;;;;;34.82;27.57;100281.88;5013631;28;97431;-81
2024/04/07 08:29:49;;;;;;;5.60;3.17;;;;;;;35.73;26.80;100281.84;4988395;27;100367;-81
2024/04/07 08:32:15;;;;;;;4.20;2.92;;;;;;;36.29;26.34;100277.53;5045940;27;102621;-83
2024/04/07 08:34:40;;;;;;;4.50;3.10;;;;;;;37.30;25.55;100259.13;5029830;27;97021;-83
2024/04/07 08:37:07;;;;;;;6.65;3.25;;;;;;;35.60;27.02;100260.06;5011633;28;96913;-82
2024/04/07 08:39:34;;;;;;;5.85;3.10;;;;;;;38.06;24.43;100252.22;5029429;27;98113;-83
2024/04/07 08:42:01;;;;;;;7.53;2.83;;;;;;;38.64;24.28;100262.44;5011708;27;98143;-85
2024/04/07 08:44:27;;;;;;;5.47;3.30;;;;;;;39.98;22.96;100266.13;5004238;28;97788;-83
2024/04/07 08:46:54;;;;;;;5.20;2.92;;;;;;;38.44;24.33;100270.19;5004077;27;97764;-82
2024/04/07 08:49:20;;;;;;;3.75;2.88;;;;;;;39.84;22.84;100263.66;5003527;28;99843;-84
2024/04/07 08:51:47;;;;;;;3.83;3.45;;;;;;;42.41;20.85;100266.03;5021485;27;98319;-83
2024/04/07 08:54:12;;;;;;;7.45;3.00;;;;;;;42.72;20.43;100269.00;5008760;28;97808;-83
2024/04/07 08:56:39;;;;;;;6.03;2.70;;;;;;;43.68;19.38;100270.59;5007673;28;97717;-83
2024/04/07 08:59:08;;;;;;;4.82;3.38;;;;;;;44.45;18.94;100268.78;5022484;27;99004;-84
2024/04/07 09:01:34;;;;;;;3.28;2.50;;;;;;;46.17;17.70;100245.31;5021192;27;98620;-83
2024/04/07 09:04:00;;;;;;;2.38;1.90;;;;;;;45.69;16.75;100266.44;5023010;27;97967;-83
2024/04/07 09:06:30;;;;;;;3.35;2.03;;;;;;;46.18;16.38;100257.22;5021267;27;97418;-84
2024/04/07 09:08:56;;;;;;;;;;;;;;;44.63;16.90;100258.25;5006318;27;97882;-85
2024/04/07 09:11:21;;;;;;;3.65;1.45;;;;;;;45.44;16.44;100251.59;4986898;28;101711;-84
2024/04/07 09:13:47;;;;;;;3.80;1.45;;;;;;;44.02;17.17;100248.84;5024533;27;97388;-82
2024/04/07 09:16:13;;;;;;;2.70;1.55;;;;;;;40.64;19.57;100275.50;5023740;27;98001;-84
2024/04/07 09:18:38;;;;;;;5.30;1.50;;;;;;;37.74;21.83;100270.78;5023370;27;98001;-83
2024/04/07 09:21:04;;;;;;;2.13;1.58;;;;;;;39.42;20.13;100262.25;5007003;27;100887;-83
2024/04/07 09:23:30;;;;;;;4.70;1.65;;;;;;;39.67;20.14;100261.94;5023550;27;97428;-83
2024/04/07 09:25:56;;;;;;;2.97;1.65;;;;;;;37.51;21.84;100255.09;5007831;28;97644;-81
2024/04/07 09:28:22;;;;;;;2.72;1.80;;;;;;;37.42;22.26;100270.13;5012236;28;100965;-76
2024/04/07 09:30:47;;;;;;;5.07;1.60;;;;;;;39.73;19.96;100231.56;5030987;27;97864;-82
2024/04/07 09:33:13;;;;;;;2.38;1.80;;;;;;;41.45;18.48;100247.41;5015068;27;97387;-78
2024/04/07 09:35:39;;;;;;;3.65;2.05;;;;;;;41.36;18.83;100235.19;5031428;27;97294;-80
2024/04/07 09:38:05;;;;;;;3.95;1.52;;;;;;;41.34;18.89;100229.13;5026942;27;100382;-87
2024/04/07 09:40:32;;;;;;;2.03;1.58;;;;;;;40.09;19.89;100224.00;5029720;28;97908;-83
2024/04/07 09:42:58;;;;;;;1.95;1.42;;;;;;;38.10;21.75;100228.75;5009574;28;98002;-80
2024/04/07 09:45:25;;;;;;;2.45;1.58;;;;;;;35.64;24.08;100220.38;5008126;28;97803;-81
2024/04/07 09:47:57;;;;;;;2.83;1.80;;;;;;;34.82;24.91;100239.09;5030282;28;97516;-85
2024/04/07 09:50:32;;;;;;;4.03;1.35;;;;;;;32.92;26.65;100226.47;5027037;27;97449;-82
2024/04/07 09:53:05;;;;;;;5.82;1.90;;;;;;;31.85;27.59;100213.03;5024558;28;97010;-78
2024/04/07 09:55:35;;;;;;;3.42;1.75;;;;;;;31.91;27.74;100237.56;5026532;27;97479;-80
2024/04/07 09:58:01;;;;;;;3.85;1.50;;;;;;;32.28;27.19;100232.06;5029647;28;97925;-78
2024/04/07 10:00:27;;;;;;;4.35;1.67;;;;;;;32.67;27.16;100226.13;5011828;27;101031;-77
2024/04/07 10:02:52;;;;;;;6.20;1.25;;;;;;;31.74;27.93;100228.81;5045142;27;97311;-78
2024/04/07 10:05:18;;;;;;;2.65;1.50;;;;;;;31.44;27.91;100224.47;5028720;27;97222;-79
2024/04/07 10:07:43;;;;;;;4.28;1.35;;;;;;;31.11;28.78;100214.03;5030045;27;98137;-81
2024/04/07 10:10:09;;;;;;;4.20;1.40;;;;;;;31.03;28.64;100189.75;5028358;27;98117;-78
2024/04/07 10:12:35;;;;;;;3.83;1.48;;;;;;;31.11;27.71;100206.75;5033704;27;97710;-78
2024/04/07 10:15:00;;;;;;;2.15;1.65;;;;;;;31.13;27.28;100182.19;5026898;27;97822;-78
2024/04/07 10:17:27;;;;;;;5.20;1.85;;;;;;;31.07;27.62;100210.03;5009608;28;99942;-79
2024/04/07 10:19:54;;;;;;;2.17;1.15;;;;;;;30.46;27.47;100199.34;5028773;28;97713;-78
2024/04/07 10:22:21;;;;;;;4.13;1.20;;;;;;;30.70;27.47;100205.53;5009207;28;98081;-81
2024/04/07 10:24:50;;;;;;;1.77;1.45;;;;;;;31.26;27.03;100192.31;5006928;27;97424;-80
2024/04/07 10:27:22;;;;;;;4.35;1.65;;;;;;;31.13;27.33;100207.41;5021837;27;97986;-82
2024/04/07 10:29:52;;;;;;;1.67;1.30;;;;;;;30.68;27.65;100195.69;4993083;27;100504;-80
2024/04/07 10:32:28;;;;;;;2.33;1.42;;;;;;;30.33;28.41;100205.38;5025308;27;97827;-79
2024/04/07 10:35:00;;;;;;;5.15;1.60;;;;;;;30.58;28.59;100211.38;5030724;27;97962;-77
2024/04/07 10:37:26;;;;;;;5.13;1.17;;;;;;;30.87;28.13;100198.94;5043089;27;99427;-80
2024/04/07 10:39:52;;;;;;;2.13;1.35;;;;;;;30.53;28.10;100185.88;5008260;27;101213;-79
2024/04/07 10:42:17;;;;;;;4.45;1.40;;;;;;;30.60;28.71;100211.19;5025094;27;98275;-79
2024/04/07 10:44:43;;;;;;;7.10;2.00;;;;;;;30.51;28.76;100202.31;5024516;27;97424;-79
2024/04/07 10:47:09;;;;;;;2.42;1.17;;;;;;;29.97;29.29;100202.44;5007757;28;101087;-78
2024/04/07 10:49:37;;;;;;;3.95;1.85;;;;;;;29.93;29.51;100201.97;5024678;27;98410;-75
2024/04/07 10:52:02;;;;;;;1.30;1.20;;;;;;;29.89;30.17;100181.69;5018640;28;96805;-76
2024/04/07 10:54:33;;;;;;;3.30;1.33;;;;;;;29.93;28.95;100187.56;5035330;28;97253;-76
2024/04/07 10:56:58;;;;;;;;;;;;;;;29.95;29.49;100193.66;5035130;27;97615;-77
2024/04/07 10:59:25;;;;;;;6.03;1.95;;;;;;;30.10;29.03;100185.56;5034232;27;97836;-78
2024/04/07 11:01:51;;;;;;;8.73;2.00;;;;;;;29.95;29.52;100163.88;5037197;27;97391;-77
2024/04/07 11:04:17;;;;;;;3.60;1.52;;;;;;;30.09;29.27;100175.78;5034973;27;96882;-77
2024/04/07 11:06:43;;;;;;;2.50;1.63;;;;;;;29.99;29.77;100174.19;5034390;27;97531;-77
2024/04/07 11:09:09;;;;;;;5.57;1.30;;;;;;;29.88;29.84;100166.50;5033794;27;97403;-77
2024/04/07 11:11:35;;;;;;;5.38;1.67;;;;;;;29.97;30.17;100168.09;5034707;28;98218;-76
2024/04/07 11:14:01;;;;;;;2.35;1.50;;;;;;;29.85;29.80;100166.84;5034997;27;96805;-77
2024/04/07 11:16:26;;;;;;;5.72;1.50;;;;;;;29.99;30.03;100170.59;5035743;27;97452;-78
2024/04/07 11:18:55;;;;;;;6.22;1.80;;;;;;;29.96;30.27;100179.09;5033889;27;97917;-77
2024/04/07 11:21:21;;;;;;;6.40;1.30;;;;;;;29.84;30.34;100184.09;5035722;27;97641;-76